Seven Springs, Florida
Current Conditions -  °F | °C
As of 7:53 PM on Monday 26 Jan 2015 (Local Time) from KBKV Reporting Station
Few Clouds Few Clouds  
Wind Chill: 54°   Ceiling: Unl
Heat Index: 54°   Visibility: 10mi
Dew Point: 45°   Wind: 9mph
Humidity: 72%   Direction: 300°WNW
Pressure: 29.95"   Gusts: NA
Location:  28.2318°N, 82.5991°W
Report Text: KBKV 270053Z AUTO 30008KT 10SM FEW031 12/07 A2995 RMK AO2 SLP141 T01220072
Loading
Personal Weather Stations






























Interactive Weather Map New forecast layout! Learn more

10-Day Weather Forecast

Advertisements
Track Severe Weather on mobile